Time;durP1;ratioP1;P1;durP2;ratioP2;P2;SDS_P1;SDS_P2;PMS_P1;PMS_P2;Temp;Humidity;BMP_temperature;BMP_pressure;BME280_temperature;BME280_humidity;BME280_pressure;Samples;Min_cycle;Max_cycle;Signal;HPM_P1;HPM_P2
2021/01/03 00:02:08;;;;;;;13.52;12.27;;;1.50;99.90;;;;;;5061426;28;20226;-74
2021/01/03 00:04:36;;;;;;;11.35;10.40;;;1.50;99.90;;;;;;5065431;28;20214;-74
2021/01/03 00:07:03;;;;;;;12.30;11.20;;;1.50;99.90;;;;;;5058529;28;20222;-75
2021/01/03 00:09:29;;;;;;;10.30;9.40;;;1.60;99.90;;;;;;5061868;28;20218;-74
2021/01/03 00:11:56;;;;;;;10.70;9.80;;;1.60;99.90;;;;;;5063016;28;20218;-75
2021/01/03 00:14:23;;;;;;;9.73;8.82;;;1.70;99.90;;;;;;5060594;28;20218;-74
2021/01/03 00:16:54;;;;;;;8.93;8.18;;;1.70;99.90;;;;;;5058826;28;20214;-75
2021/01/03 00:19:21;;;;;;;10.55;9.63;;;1.70;99.90;;;;;;5064019;28;20770;-75
2021/01/03 00:21:49;;;;;;;23.42;12.57;;;1.70;99.90;;;;;;5059341;28;20364;-74
2021/01/03 00:24:15;;;;;;;17.58;15.90;;;1.60;99.90;;;;;;5062481;28;20240;-73
2021/01/03 00:26:42;;;;;;;17.63;15.80;;;1.50;99.90;;;;;;5064067;28;20214;-74
2021/01/03 00:29:08;;;;;;;14.32;12.93;;;1.30;99.90;;;;;;5075797;28;20221;-74
2021/01/03 00:31:37;;;;;;;13.88;12.68;;;1.30;99.90;;;;;;5092184;28;20261;-76
2021/01/03 00:34:05;;;;;;;23.70;21.30;;;1.30;99.90;;;;;;5091494;28;20233;-75
2021/01/03 00:36:32;;;;;;;273.75;29.00;;;1.30;99.90;;;;;;5064720;28;20272;-74
2021/01/03 00:38:59;;;;;;;389.83;36.90;;;1.20;99.90;;;;;;5068209;28;20225;-74
2021/01/03 00:41:26;;;;;;;27.33;23.77;;;1.00;99.90;;;;;;5085090;27;20691;-74
2021/01/03 00:43:52;;;;;;;21.20;19.17;;;0.90;99.90;;;;;;5071086;28;20226;-74
2021/01/03 00:46:19;;;;;;;18.02;16.20;;;0.90;99.90;;;;;;5073300;28;20595;-74
2021/01/03 00:48:45;;;;;;;15.98;14.40;;;0.90;99.90;;;;;;5061742;28;20221;-74
2021/01/03 00:51:12;;;;;;;14.05;12.65;;;1.00;99.90;;;;;;5063513;28;20222;-76
2021/01/03 00:53:38;;;;;;;13.30;12.07;;;1.00;99.90;;;;;;5064672;28;20222;-74
2021/01/03 00:56:06;;;;;;;11.77;10.73;;;1.10;99.90;;;;;;5052959;28;20218;-74
2021/01/03 00:58:33;;;;;;;12.43;11.30;;;1.20;99.90;;;;;;5060069;28;20651;-74
2021/01/03 01:00:59;;;;;;;10.00;9.10;;;1.20;99.90;;;;;;5074715;28;20311;-76
2021/01/03 01:03:28;;;;;;;10.55;9.60;;;1.30;99.90;;;;;;5080498;28;20280;-74
2021/01/03 01:05:55;;;;;;;11.40;10.27;;;1.30;99.90;;;;;;5068198;28;20244;-74
2021/01/03 01:08:21;;;;;;;11.82;10.73;;;1.30;99.90;;;;;;5059839;28;20227;-74
2021/01/03 01:10:48;;;;;;;28.05;12.65;;;1.30;99.90;;;;;;5067264;28;20234;-74
2021/01/03 01:13:15;;;;;;;14.80;13.40;;;1.30;99.90;;;;;;5063056;28;20214;-74
2021/01/03 01:15:42;;;;;;;12.82;11.63;;;1.20;99.90;;;;;;5066136;28;20230;-74
2021/01/03 01:18:09;;;;;;;12.45;11.40;;;1.20;99.90;;;;;;5095061;27;20213;-75
2021/01/03 01:20:36;;;;;;;11.70;10.68;;;1.20;99.90;;;;;;5092757;28;20218;-74
2021/01/03 01:23:03;;;;;;;10.95;9.95;;;1.30;99.90;;;;;;5092432;27;20375;-74
2021/01/03 01:25:32;;;;;;;10.57;9.57;;;1.30;99.90;;;;;;5082624;28;20222;-73
2021/01/03 01:27:59;;;;;;;10.10;9.30;;;1.30;99.90;;;;;;5069323;28;20233;-74
2021/01/03 01:30:30;;;;;;;10.25;9.45;;;1.40;99.90;;;;;;5066366;28;20225;-76
2021/01/03 01:32:57;;;;;;;11.20;10.20;;;1.40;99.90;;;;;;5057511;28;20218;-74
2021/01/03 01:35:26;;;;;;;10.35;9.45;;;1.40;99.90;;;;;;5052853;28;20763;-74
2021/01/03 01:37:53;;;;;;;9.80;8.98;;;1.40;99.90;;;;;;5065147;27;20229;-74
2021/01/03 01:40:23;;;;;;;10.30;9.40;;;1.40;99.90;;;;;;5059283;28;20226;-75
2021/01/03 01:42:50;;;;;;;10.05;9.18;;;1.40;99.90;;;;;;5066210;28;20229;-76
2021/01/03 01:45:20;;;;;;;10.52;9.52;;;1.40;99.90;;;;;;5071406;28;20214;-74
2021/01/03 01:47:51;;;;;;;9.82;9.02;;;1.50;99.90;;;;;;5079356;28;20232;-75
2021/01/03 01:50:20;;;;;;;10.60;9.75;;;1.40;99.90;;;;;;5065922;28;20407;-75
2021/01/03 01:52:50;;;;;;;10.13;9.23;;;1.40;99.90;;;;;;5072232;28;20229;-75
2021/01/03 01:55:21;;;;;;;14.38;12.90;;;1.40;99.90;;;;;;5066574;28;20241;-74
2021/01/03 01:57:52;;;;;;;28.38;12.50;;;1.30;99.90;;;;;;5073728;28;20225;-74
2021/01/03 02:00:23;;;;;;;31.67;14.48;;;1.30;99.90;;;;;;5061477;28;20799;-74
2021/01/03 02:02:59;;;;;;;15.52;13.93;;;1.20;99.90;;;;;;5063938;28;20218;-74
2021/01/03 02:05:31;;;;;;;13.65;12.38;;;1.10;99.90;;;;;;5086661;28;20224;-75
2021/01/03 02:08:02;;;;;;;15.95;14.35;;;1.10;99.90;;;;;;5080602;28;20228;-75
2021/01/03 02:10:32;;;;;;;14.30;13.00;;;1.10;99.90;;;;;;5084497;28;20244;-74
2021/01/03 02:13:09;;;;;;;14.70;13.40;;;1.00;99.90;;;;;;5065213;28;20284;-76
2021/01/03 02:15:40;;;;;;;13.98;12.63;;;1.10;99.90;;;;;;5062326;28;20733;-74
2021/01/03 02:18:11;;;;;;;12.48;11.38;;;1.10;99.90;;;;;;5062573;28;20696;-75
2021/01/03 02:20:49;;;;;;;13.55;12.25;;;1.20;99.90;;;;;;5063228;28;20245;-74
2021/01/03 02:23:23;;;;;;;12.73;11.43;;;1.20;99.90;;;;;;5073739;28;20236;-75
2021/01/03 02:25:51;;;;;;;12.95;11.65;;;1.30;99.90;;;;;;5059107;28;20237;-74
2021/01/03 02:28:21;;;;;;;11.52;10.43;;;1.30;99.90;;;;;;5068429;28;20887;-74
2021/01/03 02:30:52;;;;;;;11.35;10.35;;;1.40;99.90;;;;;;5068313;28;20762;-75
2021/01/03 02:33:24;;;;;;;12.15;11.07;;;1.40;99.90;;;;;;5069415;28;20232;-74
2021/01/03 02:35:54;;;;;;;11.27;10.27;;;1.40;99.90;;;;;;5069241;28;20279;-74
2021/01/03 02:38:25;;;;;;;10.55;9.65;;;1.40;99.90;;;;;;5067675;28;20214;-74
2021/01/03 02:40:53;;;;;;;9.43;8.63;;;1.40;99.90;;;;;;5073340;28;20222;-75
2021/01/03 02:43:20;;;;;;;9.65;8.85;;;1.40;99.90;;;;;;5073310;28;20290;-75
2021/01/03 02:45:47;;;;;;;8.82;8.13;;;1.50;99.90;;;;;;5062199;28;20596;-74
2021/01/03 02:48:18;;;;;;;8.80;8.10;;;1.50;99.90;;;;;;5063802;28;20649;-76
2021/01/03 02:50:44;;;;;;;10.27;9.38;;;1.60;99.90;;;;;;5064567;28;20222;-74
2021/01/03 02:53:11;;;;;;;100.10;14.98;;;1.60;99.90;;;;;;5061843;28;20221;-75
2021/01/03 02:55:37;;;;;;;12.05;10.88;;;1.50;99.90;;;;;;5062865;28;20234;-75
2021/01/03 02:58:05;;;;;;;13.00;11.80;;;1.40;99.90;;;;;;5059897;28;20226;-74
2021/01/03 03:00:34;;;;;;;12.93;11.70;;;1.30;99.90;;;;;;5060248;28;20918;-74
2021/01/03 03:03:02;;;;;;;13.30;12.10;;;1.30;99.90;;;;;;5060060;28;22045;-74
2021/01/03 03:05:28;;;;;;;13.60;12.40;;;1.30;99.90;;;;;;5066899;28;20275;-75
2021/01/03 03:07:55;;;;;;;11.90;10.80;;;1.40;99.90;;;;;;5064762;28;20229;-75
2021/01/03 03:10:23;;;;;;;11.77;10.68;;;1.40;99.90;;;;;;5063433;28;20219;-76
2021/01/03 03:12:51;;;;;;;11.23;10.23;;;1.40;99.90;;;;;;5082732;28;20213;-77
2021/01/03 03:15:20;;;;;;;11.10;10.20;;;1.40;99.90;;;;;;5063364;28;20241;-74
2021/01/03 03:17:47;;;;;;;11.52;10.52;;;1.40;99.90;;;;;;5064616;28;20218;-75
2021/01/03 03:20:15;;;;;;;12.77;11.57;;;1.40;99.90;;;;;;5066070;28;20233;-74
2021/01/03 03:22:41;;;;;;;12.10;11.10;;;1.40;99.90;;;;;;5065264;28;20218;-74
2021/01/03 03:25:09;;;;;;;13.00;11.80;;;1.30;99.90;;;;;;5064360;28;20225;-74
2021/01/03 03:27:36;;;;;;;12.02;10.93;;;1.30;99.90;;;;;;5063755;28;20214;-74
2021/01/03 03:30:04;;;;;;;12.15;11.05;;;1.40;99.90;;;;;;5062584;28;20238;-73
2021/01/03 03:32:32;;;;;;;12.50;11.35;;;1.40;99.90;;;;;;5065485;28;20214;-74
2021/01/03 03:34:58;;;;;;;11.52;10.52;;;1.40;99.90;;;;;;5063622;28;20688;-75
2021/01/03 03:37:25;;;;;;;10.98;9.98;;;1.40;99.90;;;;;;5064239;28;20222;-74
2021/01/03 03:39:51;;;;;;;10.25;9.35;;;1.50;99.90;;;;;;5059567;28;20363;-74
2021/01/03 03:42:18;;;;;;;10.02;9.23;;;1.50;99.90;;;;;;5064313;28;20230;-75
2021/01/03 03:44:44;;;;;;;9.75;8.95;;;1.50;99.90;;;;;;5064654;28;20222;-75
2021/01/03 03:47:11;;;;;;;8.80;8.07;;;1.50;99.90;;;;;;5063345;28;20222;-74
2021/01/03 03:49:38;;;;;;;9.95;9.05;;;1.60;99.90;;;;;;5063695;28;20234;-74
2021/01/03 03:52:06;;;;;;;8.80;8.10;;;1.60;99.90;;;;;;5064878;28;20711;-76
2021/01/03 03:54:33;;;;;;;9.68;8.77;;;1.60;99.90;;;;;;5063729;28;20221;-75
2021/01/03 03:57:02;;;;;;;9.20;8.40;;;1.70;99.90;;;;;;5065681;28;20230;-75
2021/01/03 03:59:29;;;;;;;9.02;8.20;;;1.70;99.90;;;;;;5060160;28;20218;-75
2021/01/03 04:01:56;;;;;;;8.80;8.00;;;1.70;99.90;;;;;;5082285;28;20723;-75
2021/01/03 04:04:25;;;;;;;8.85;8.15;;;1.70;99.90;;;;;;5073143;28;20249;-75
2021/01/03 04:06:53;;;;;;;9.15;8.35;;;1.70;99.90;;;;;;5067269;28;20308;-74
2021/01/03 04:09:19;;;;;;;8.07;7.43;;;1.70;99.90;;;;;;5066312;28;20230;-74
2021/01/03 04:11:48;;;;;;;7.95;7.35;;;1.80;99.90;;;;;;5072075;28;20225;-75
2021/01/03 04:14:16;;;;;;;7.10;6.60;;;1.80;99.90;;;;;;5062814;28;20269;-75
2021/01/03 04:16:47;;;;;;;8.05;7.35;;;1.80;99.90;;;;;;5063617;28;20217;-74
2021/01/03 04:19:14;;;;;;;7.32;6.82;;;1.80;99.90;;;;;;5056391;28;20284;-75
2021/01/03 04:21:41;;;;;;;10.82;7.28;;;1.80;99.90;;;;;;5065779;28;20769;-76
2021/01/03 04:24:10;;;;;;;17.80;9.45;;;1.80;99.90;;;;;;5056721;28;20272;-75
2021/01/03 04:26:37;;;;;;;15.07;11.02;;;1.70;99.90;;;;;;5061412;28;20244;-75
2021/01/03 04:29:04;;;;;;;11.05;10.13;;;1.50;99.90;;;;;;5070302;28;20213;-74
2021/01/03 04:31:30;;;;;;;20.50;12.88;;;1.40;99.90;;;;;;5093947;28;20227;-75
2021/01/03 04:33:57;;;;;;;13.18;11.98;;;1.30;99.90;;;;;;5079067;28;20217;-74
2021/01/03 04:36:23;;;;;;;12.30;11.10;;;1.20;99.90;;;;;;5065214;28;20222;-75
2021/01/03 04:38:50;;;;;;;11.95;10.95;;;1.20;99.90;;;;;;5073761;28;20611;-74
2021/01/03 04:41:25;;;;;;;12.98;11.85;;;1.10;99.90;;;;;;5077046;28;20346;-75
2021/01/03 04:43:52;;;;;;;12.98;11.77;;;1.10;99.90;;;;;;5094233;27;20223;-75
2021/01/03 04:46:21;;;;;;;17.60;12.20;;;1.10;99.90;;;;;;5088695;27;20228;-74
2021/01/03 04:48:52;;;;;;;37.08;13.32;;;1.10;99.90;;;;;;5058297;28;20230;-74
2021/01/03 04:51:30;;;;;;;53.35;15.00;;;1.00;99.90;;;;;;5060440;28;20722;-74
2021/01/03 04:54:03;;;;;;;16.08;14.50;;;1.00;99.90;;;;;;5067354;28;20214;-76
2021/01/03 04:56:47;;;;;;;14.43;13.07;;;0.90;99.90;;;;;;5078355;28;20286;-74
2021/01/03 04:59:27;;;;;;;13.27;12.05;;;0.90;99.90;;;;;;5074500;28;20600;-74
2021/01/03 05:02:25;;;;;;;13.35;12.07;;;0.90;99.90;;;;;;5080472;28;20660;-74
2021/01/03 05:05:08;;;;;;;14.45;13.13;;;1.00;99.90;;;;;;5060434;28;20217;-75
2021/01/03 05:07:39;;;;;;;17.15;15.32;;;1.10;99.90;;;;;;5063222;28;20221;-74
2021/01/03 05:10:12;;;;;;;20.02;17.98;;;1.00;99.90;;;;;;5060042;28;20665;-74
2021/01/03 05:12:54;;;;;;;16.00;14.50;;;1.00;99.90;;;;;;5063956;28;20222;-74
2021/01/03 05:15:24;;;;;;;15.45;14.02;;;0.90;99.90;;;;;;5062036;28;20234;-75
2021/01/03 05:17:51;;;;;;;13.52;12.35;;;1.00;99.90;;;;;;5062875;28;20308;-74
2021/01/03 05:20:18;;;;;;;11.45;10.45;;;1.00;99.90;;;;;;5059353;28;20686;-74
2021/01/03 05:22:44;;;;;;;10.73;9.82;;;1.10;99.90;;;;;;5065993;28;20217;-74
2021/01/03 05:25:17;;;;;;;9.45;8.65;;;1.20;99.90;;;;;;5062229;28;20214;-75
2021/01/03 05:28:01;;;;;;;8.20;7.55;;;1.20;99.90;;;;;;5062268;28;20267;-74
2021/01/03 05:30:29;;;;;;;7.88;7.28;;;1.30;99.90;;;;;;5075459;28;20226;-74
2021/01/03 05:33:05;;;;;;;7.85;7.25;;;1.30;99.90;;;;;;5061035;28;20311;-73
2021/01/03 05:35:37;;;;;;;7.18;6.68;;;1.30;99.90;;;;;;5062620;28;20211;-74
2021/01/03 05:38:04;;;;;;;7.05;6.55;;;1.40;99.90;;;;;;5062519;28;20426;-74
2021/01/03 05:40:33;;;;;;;6.38;5.95;;;1.40;99.90;;;;;;5065917;28;20317;-74
2021/01/03 05:43:18;;;;;;;6.20;5.80;;;1.50;99.90;;;;;;5065824;28;20237;-75
2021/01/03 05:46:07;;;;;;;6.53;6.13;;;1.50;99.90;;;;;;5059109;28;20595;-75
2021/01/03 05:48:44;;;;;;;8.55;7.75;;;1.60;99.90;;;;;;5079710;28;20221;-75
2021/01/03 05:51:26;;;;;;;122.05;14.90;;;1.50;99.90;;;;;;5058283;28;20217;-74
2021/01/03 05:54:02;;;;;;;12.68;11.57;;;1.40;99.90;;;;;;5061026;28;20221;-76
2021/01/03 05:56:29;;;;;;;11.82;10.82;;;1.30;99.90;;;;;;5063444;28;20517;-75
2021/01/03 05:58:56;;;;;;;17.40;12.55;;;1.20;99.90;;;;;;5059785;28;20226;-73
2021/01/03 06:01:26;;;;;;;12.98;11.82;;;1.10;99.90;;;;;;5085464;28;20221;-74
2021/01/03 06:04:02;;;;;;;12.48;11.38;;;1.10;99.90;;;;;;5064588;28;20225;-74
2021/01/03 06:06:45;;;;;;;13.68;12.43;;;1.10;99.90;;;;;;5067831;28;20264;-74
2021/01/03 06:09:12;;;;;;;12.90;11.80;;;1.10;99.90;;;;;;5065742;28;20222;-75
2021/01/03 06:11:39;;;;;;;11.23;10.23;;;1.20;99.90;;;;;;5065898;28;20731;-74
2021/01/03 06:14:08;;;;;;;11.30;10.25;;;1.20;99.90;;;;;;5065089;28;20210;-74
2021/01/03 06:16:46;;;;;;;10.60;9.70;;;1.20;99.90;;;;;;5063469;28;20226;-76
2021/01/03 06:19:27;;;;;;;10.27;9.38;;;1.30;99.90;;;;;;5064028;28;20225;-75
2021/01/03 06:21:54;;;;;;;11.55;10.52;;;1.30;99.90;;;;;;5078195;28;20224;-75
2021/01/03 06:24:25;;;;;;;11.02;10.13;;;1.30;99.90;;;;;;5102543;28;20221;-75
2021/01/03 06:26:54;;;;;;;11.95;10.85;;;1.30;99.90;;;;;;5086585;28;20221;-75
2021/01/03 06:29:30;;;;;;;11.82;10.73;;;1.30;99.90;;;;;;5078512;28;20223;-75
2021/01/03 06:32:38;;;;;;;11.90;10.90;;;1.30;99.90;;;;;;5063964;28;20259;-74
2021/01/03 06:35:13;;;;;;;10.90;10.00;;;1.30;99.90;;;;;;5097265;27;20279;-77
2021/01/03 06:37:45;;;;;;;11.32;10.32;;;1.30;99.90;;;;;;5063614;28;20543;-74
2021/01/03 06:40:17;;;;;;;10.77;9.88;;;1.30;99.90;;;;;;5066395;28;20713;-74
2021/01/03 06:43:17;;;;;;;9.85;9.05;;;1.40;99.90;;;;;;5063197;28;20233;-74
2021/01/03 06:46:28;;;;;;;64.47;16.08;;;1.40;99.90;;;;;;5062456;28;20244;-74
2021/01/03 06:49:39;;;;;;;163.05;21.25;;;1.40;99.90;;;;;;5065517;28;20225;-74
2021/01/03 06:52:26;;;;;;;15.35;13.85;;;1.30;99.90;;;;;;5009327;28;20223;-76
2021/01/03 06:55:19;;;;;;;14.25;12.80;;;1.20;99.90;;;;;;5016217;28;20278;-74
2021/01/03 06:58:30;;;;;;;12.20;11.10;;;1.20;99.90;;;;;;5051070;28;20308;-74
2021/01/03 07:01:00;;;;;;;13.27;12.07;;;1.30;99.90;;;;;;5086194;28;20233;-74
2021/01/03 07:03:29;;;;;;;19.40;17.55;;;1.30;99.90;;;;;;5076864;28;20270;-74
2021/01/03 07:05:59;;;;;;;15.52;14.13;;;1.30;99.90;;;;;;5080695;28;20230;-74
2021/01/03 07:08:29;;;;;;;13.93;12.65;;;1.30;99.90;;;;;;5083087;28;20282;-74
2021/01/03 07:10:55;;;;;;;12.85;11.75;;;1.30;99.90;;;;;;5080157;28;20218;-75
2021/01/03 07:13:37;;;;;;;56.58;16.83;;;1.30;99.90;;;;;;5060807;28;20229;-75
2021/01/03 07:16:32;;;;;;;16.17;14.60;;;1.30;99.90;;;;;;5074759;28;20222;-75
2021/01/03 07:19:05;;;;;;;15.32;13.73;;;1.20;99.90;;;;;;5089039;28;20296;-74
2021/01/03 07:21:38;;;;;;;16.48;14.88;;;1.30;99.90;;;;;;5070729;28;20233;-74
2021/01/03 07:24:30;;;;;;;17.65;13.48;;;1.30;99.90;;;;;;5074029;28;20233;-74
2021/01/03 07:27:34;;;;;;;16.00;14.48;;;1.40;99.90;;;;;;5075522;28;20308;-74
2021/01/03 07:30:42;;;;;;;17.17;15.40;;;1.40;99.90;;;;;;5072549;28;20226;-73
2021/01/03 07:33:39;;;;;;;16.10;14.60;;;1.40;99.90;;;;;;5082786;28;20222;-74
2021/01/03 07:36:25;;;;;;;16.38;14.88;;;1.50;99.90;;;;;;5061972;28;20225;-74
2021/01/03 07:39:16;;;;;;;17.05;15.35;;;1.50;99.90;;;;;;5060963;28;20226;-74
2021/01/03 07:41:44;;;;;;;15.80;14.30;;;1.60;99.90;;;;;;5064154;28;20237;-74
2021/01/03 07:44:13;;;;;;;16.98;15.27;;;1.60;99.90;;;;;;5059693;28;20229;-74
2021/01/03 07:46:48;;;;;;;17.45;15.77;;;1.60;99.90;;;;;;5058712;28;20730;-75
2021/01/03 07:49:41;;;;;;;15.30;13.80;;;1.70;99.90;;;;;;5059585;28;20275;-75
2021/01/03 07:52:39;;;;;;;16.05;14.55;;;1.70;99.90;;;;;;5061079;28;20214;-74
2021/01/03 07:55:22;;;;;;;16.25;14.68;;;1.80;99.90;;;;;;5060820;28;20217;-75
2021/01/03 07:57:57;;;;;;;14.85;13.45;;;1.90;99.90;;;;;;5064332;28;20278;-75
2021/01/03 08:00:25;;;;;;;16.50;14.95;;;2.00;99.90;;;;;;5064434;28;20209;-76
2021/01/03 08:02:57;;;;;;;16.30;14.80;;;2.10;99.90;;;;;;5065691;28;20230;-76
2021/01/03 08:05:25;;;;;;;15.20;13.80;;;2.30;99.90;;;;;;5077370;28;20222;-75
2021/01/03 08:08:00;;;;;;;15.02;13.70;;;2.50;99.90;;;;;;5066216;28;20704;-74
2021/01/03 08:10:27;;;;;;;13.38;12.27;;;2.60;99.90;;;;;;5073486;28;20725;-75
2021/01/03 08:13:02;;;;;;;15.00;13.68;;;2.60;99.90;;;;;;5091007;27;20225;-75
2021/01/03 08:15:31;;;;;;;14.68;13.38;;;2.70;99.90;;;;;;5079834;27;20218;-74
2021/01/03 08:18:03;;;;;;;13.82;12.65;;;2.70;99.90;;;;;;5089581;28;20220;-76
2021/01/03 08:20:31;;;;;;;13.93;12.73;;;2.60;99.90;;;;;;5080706;27;20248;-75
2021/01/03 08:23:23;;;;;;;14.77;13.48;;;2.60;99.90;;;;;;5063335;28;20221;-74
2021/01/03 08:26:01;;;;;;;15.20;13.82;;;2.70;99.90;;;;;;5060859;28;20263;-75
2021/01/03 08:28:28;;;;;;;13.35;12.18;;;2.60;99.90;;;;;;5082462;28;20214;-75
2021/01/03 08:31:00;;;;;;;13.50;12.30;;;2.60;99.90;;;;;;5059488;28;20232;-74
2021/01/03 08:33:32;;;;;;;13.77;12.57;;;2.60;99.90;;;;;;5063094;28;20282;-74
2021/01/03 08:36:14;;;;;;;12.88;11.77;;;2.50;99.90;;;;;;5058070;28;20241;-74
2021/01/03 08:38:40;;;;;;;10.77;9.88;;;2.50;99.90;;;;;;5062243;28;20233;-76
2021/01/03 08:41:12;;;;;;;10.57;9.77;;;2.50;99.90;;;;;;5065804;28;20214;-74
2021/01/03 08:43:42;;;;;;;9.07;8.38;;;2.50;99.90;;;;;;5059208;28;20221;-75
2021/01/03 08:46:11;;;;;;;8.77;8.07;;;2.60;99.90;;;;;;5060923;28;20234;-75
2021/01/03 08:48:38;;;;;;;8.13;7.53;;;2.60;99.90;;;;;;5064132;28;20271;-75
2021/01/03 08:51:08;;;;;;;9.43;8.63;;;2.60;99.90;;;;;;5059601;28;20277;-74
2021/01/03 08:53:35;;;;;;;10.65;9.75;;;2.60;99.90;;;;;;5053448;28;20222;-77
2021/01/03 08:56:05;;;;;;;10.80;9.85;;;2.60;99.90;;;;;;5056937;28;20659;-76
2021/01/03 08:58:37;;;;;;;11.13;10.05;;;2.60;99.90;;;;;;5055808;28;20230;-77
2021/01/03 09:01:05;;;;;;;12.27;11.18;;;2.70;99.90;;;;;;5056854;28;20222;-76
2021/01/03 09:03:34;;;;;;;11.93;10.93;;;2.70;99.90;;;;;;5055018;28;20234;-76
2021/01/03 09:06:02;;;;;;;14.07;12.88;;;2.60;99.90;;;;;;5060064;28;20263;-76
2021/01/03 09:08:32;;;;;;;21.08;19.23;;;2.70;99.90;;;;;;5079634;27;20213;-77
2021/01/03 09:11:06;;;;;;;21.02;19.17;;;2.70;99.90;;;;;;5076752;28;20569;-76
2021/01/03 09:13:34;;;;;;;18.23;16.58;;;2.70;99.90;;;;;;5073319;28;20569;-75
2021/01/03 09:16:09;;;;;;;24.75;22.40;;;2.70;99.90;;;;;;5074231;28;20275;-75
2021/01/03 09:18:41;;;;;;;21.10;19.10;;;2.70;99.90;;;;;;5068748;28;20225;-75
2021/01/03 09:21:11;;;;;;;21.80;19.73;;;2.60;99.90;;;;;;5052303;28;20844;-75
2021/01/03 09:23:42;;;;;;;21.83;19.83;;;2.50;99.90;;;;;;5059730;28;20217;-75
2021/01/03 09:26:10;;;;;;;21.02;19.13;;;2.50;99.90;;;;;;5061781;28;20238;-74
2021/01/03 09:28:40;;;;;;;19.15;17.45;;;2.60;99.90;;;;;;5056449;28;20256;-75
2021/01/03 09:31:13;;;;;;;17.85;16.25;;;2.70;99.90;;;;;;5073343;28;20260;-74
2021/01/03 09:33:42;;;;;;;16.98;15.40;;;2.90;99.90;;;;;;5060170;28;20266;-75
2021/01/03 09:36:29;;;;;;;16.88;15.35;;;3.10;99.90;;;;;;5060783;28;20335;-77
2021/01/03 09:39:25;;;;;;;17.80;16.13;;;3.20;99.90;;;;;;5060963;28;20221;-76
2021/01/03 09:42:27;;;;;;;16.92;15.43;;;3.30;99.90;;;;;;5060566;28;20251;-76
2021/01/03 09:44:58;;;;;;;13.85;12.65;;;3.40;99.90;;;;;;5061782;28;20233;-74
2021/01/03 09:47:38;;;;;;;13.13;11.93;;;3.40;99.90;;;;;;5062463;28;20714;-72
2021/01/03 09:50:25;;;;;;;12.80;11.70;;;3.40;99.90;;;;;;5082052;27;20224;-76
2021/01/03 09:53:16;;;;;;;12.77;11.65;;;3.40;99.90;;;;;;5059964;28;20222;-74
2021/01/03 09:55:52;;;;;;;12.13;11.02;;;3.40;99.90;;;;;;5053978;28;20214;-74
2021/01/03 09:58:18;;;;;;;12.65;11.65;;;3.50;99.90;;;;;;5070287;28;20230;-74
2021/01/03 10:01:03;;;;;;;15.85;11.73;;;3.50;99.90;;;;;;5081354;28;20248;-77
2021/01/03 10:03:38;;;;;;;15.98;14.55;;;3.70;99.90;;;;;;5061558;28;20214;-75
2021/01/03 10:06:21;;;;;;;16.02;14.63;;;3.80;99.90;;;;;;5061156;28;20391;-75
2021/01/03 10:08:48;;;;;;;18.42;16.73;;;3.70;99.90;;;;;;5061764;28;20712;-76
2021/01/03 10:11:30;;;;;;;19.35;17.52;;;3.80;99.90;;;;;;5058436;28;20222;-74
2021/01/03 10:13:59;;;;;;;19.10;17.33;;;4.00;99.90;;;;;;5063563;27;20221;-76
2021/01/03 10:16:28;;;;;;;21.40;19.40;;;4.20;99.90;;;;;;5055451;28;20222;-75
2021/01/03 10:18:55;;;;;;;23.10;20.85;;;4.30;99.90;;;;;;5082758;28;20319;-77
2021/01/03 10:21:32;;;;;;;23.52;21.23;;;4.30;99.90;;;;;;5082392;28;20284;-77
2021/01/03 10:24:02;;;;;;;27.92;23.48;;;4.30;99.90;;;;;;5083342;28;20233;-78
2021/01/03 10:26:32;;;;;;;24.30;21.90;;;4.30;99.90;;;;;;5062631;28;20230;-76
2021/01/03 10:28:59;;;;;;;23.55;21.15;;;4.30;99.90;;;;;;5058648;28;20226;-75
2021/01/03 10:31:36;;;;;;;26.40;23.55;;;4.40;99.90;;;;;;5068432;28;20236;-75
2021/01/03 10:34:03;;;;;;;26.50;23.83;;;4.30;99.90;;;;;;5082651;28;20228;-76
2021/01/03 10:36:30;;;;;;;30.70;27.38;;;4.30;99.90;;;;;;5078727;28;20244;-76
2021/01/03 10:38:56;;;;;;;28.08;25.17;;;4.30;99.90;;;;;;5080027;28;20754;-76
2021/01/03 10:41:30;;;;;;;27.80;24.90;;;4.40;99.90;;;;;;5065667;28;20798;-75
2021/01/03 10:43:57;;;;;;;25.92;23.35;;;4.50;99.90;;;;;;5057538;28;20302;-75
2021/01/03 10:46:23;;;;;;;26.45;23.85;;;4.50;99.90;;;;;;5060515;28;20253;-76
2021/01/03 10:48:50;;;;;;;26.08;23.48;;;4.50;99.90;;;;;;5058919;28;20225;-76
2021/01/03 10:51:17;;;;;;;25.95;23.45;;;4.50;99.90;;;;;;5086971;28;20236;-77
2021/01/03 10:53:44;;;;;;;24.05;21.63;;;4.40;99.90;;;;;;5068404;27;20218;-74
2021/01/03 10:56:11;;;;;;;24.13;21.75;;;4.50;99.90;;;;;;5067644;28;20211;-76
2021/01/03 10:58:40;;;;;;;21.05;19.08;;;4.60;99.90;;;;;;5061346;28;20217;-74
2021/01/03 11:01:07;;;;;;;19.38;17.52;;;4.70;99.90;;;;;;5058044;28;20593;-74
2021/01/03 11:03:34;;;;;;;16.45;14.93;;;5.00;99.90;;;;;;5060838;28;20711;-75
2021/01/03 11:06:00;;;;;;;13.98;12.75;;;5.40;99.90;;;;;;5075998;28;20500;-75
2021/01/03 11:08:27;;;;;;;14.85;13.55;;;5.70;99.90;;;;;;5083959;28;20574;-73
2021/01/03 11:10:53;;;;;;;16.15;14.65;;;5.80;99.90;;;;;;5071209;27;20700;-73
2021/01/03 11:13:20;;;;;;;15.45;13.95;;;5.80;99.90;;;;;;5075404;28;20286;-74
2021/01/03 11:15:49;;;;;;;15.48;14.07;;;5.60;99.90;;;;;;5062583;28;20727;-75
2021/01/03 11:18:15;;;;;;;14.65;13.38;;;5.70;99.90;;;;;;5074689;28;20584;-75
2021/01/03 11:20:42;;;;;;;15.52;14.13;;;5.70;99.90;;;;;;5082588;28;20222;-75
2021/01/03 11:23:08;;;;;;;15.45;14.05;;;5.80;99.90;;;;;;5079877;28;20998;-76
2021/01/03 11:25:35;;;;;;;14.43;13.18;;;5.80;99.90;;;;;;5078662;28;20274;-75
2021/01/03 11:28:01;;;;;;;14.20;12.93;;;6.00;99.90;;;;;;5065825;28;20765;-74
2021/01/03 11:30:28;;;;;;;15.30;13.95;;;6.10;99.90;;;;;;5058658;28;20245;-76
2021/01/03 11:32:55;;;;;;;16.70;15.30;;;6.10;99.90;;;;;;5061862;28;20222;-75
2021/01/03 11:35:22;;;;;;;18.75;17.00;;;6.10;99.90;;;;;;5059071;28;20222;-74
2021/01/03 11:37:49;;;;;;;17.65;16.02;;;6.20;99.90;;;;;;5059660;28;20653;-77
2021/01/03 11:40:17;;;;;;;18.60;16.80;;;6.20;99.90;;;;;;5063703;28;20459;-74
2021/01/03 11:42:43;;;;;;;19.13;17.33;;;6.20;99.90;;;;;;5063068;28;20608;-74
2021/01/03 11:45:13;;;;;;;20.42;18.42;;;6.30;99.90;;;;;;5071095;28;20229;-76
2021/01/03 11:47:40;;;;;;;21.48;19.38;;;6.50;99.90;;;;;;5072699;28;20233;-75
2021/01/03 11:50:10;;;;;;;20.30;18.45;;;6.60;99.90;;;;;;5079399;28;20437;-75
2021/01/03 11:52:37;;;;;;;19.42;17.63;;;6.60;99.90;;;;;;5070838;28;20218;-75
2021/01/03 11:55:06;;;;;;;20.83;18.92;;;6.50;99.90;;;;;;5066996;28;20233;-75
2021/01/03 11:57:32;;;;;;;22.50;20.30;;;6.30;99.90;;;;;;5077384;28;20228;-75
2021/01/03 11:59:59;;;;;;;20.25;18.30;;;6.20;99.90;;;;;;5074549;28;20230;-74
2021/01/03 12:02:28;;;;;;;19.02;17.23;;;6.20;99.90;;;;;;5078593;28;20225;-75
2021/01/03 12:04:54;;;;;;;20.13;18.23;;;6.30;99.90;;;;;;5081024;28;20653;-76
2021/01/03 12:07:22;;;;;;;21.48;19.45;;;6.30;99.90;;;;;;5081294;28;20999;-73
2021/01/03 12:09:49;;;;;;;21.45;19.33;;;6.30;99.90;;;;;;5075853;28;20239;-74
2021/01/03 12:12:19;;;;;;;19.95;18.05;;;7.10;99.90;;;;;;5076533;28;20233;-74
2021/01/03 12:14:46;;;;;;;20.25;18.42;;;7.30;99.90;;;;;;5080829;28;20220;-73
2021/01/03 12:17:15;;;;;;;20.42;18.42;;;7.30;99.90;;;;;;5082261;28;20217;-75
2021/01/03 12:19:42;;;;;;;20.20;18.30;;;7.10;99.90;;;;;;5083916;28;20312;-77
2021/01/03 12:22:10;;;;;;;18.48;16.75;;;6.90;99.90;;;;;;5076700;28;20218;-75
2021/01/03 12:24:37;;;;;;;19.13;17.42;;;6.70;99.90;;;;;;5061970;28;20214;-76
2021/01/03 12:27:05;;;;;;;16.25;14.82;;;6.70;99.90;;;;;;5061585;28;20216;-71
2021/01/03 12:29:32;;;;;;;15.63;14.23;;;6.70;99.90;;;;;;5058258;28;20225;-74
2021/01/03 12:32:03;;;;;;;15.93;14.35;;;6.70;99.90;;;;;;5053675;28;20279;-74
2021/01/03 12:34:30;;;;;;;14.48;13.15;;;6.70;99.90;;;;;;5059199;28;20218;-75
2021/01/03 12:37:03;;;;;;;14.23;12.93;;;6.80;99.90;;;;;;5059833;28;20221;-74
2021/01/03 12:39:29;;;;;;;15.73;14.32;;;7.10;99.90;;;;;;5058290;28;20682;-74
2021/01/03 12:41:57;;;;;;;13.90;12.80;;;7.80;99.90;;;;;;5054847;28;20240;-75
2021/01/03 12:44:24;;;;;;;13.70;12.40;;;8.40;99.90;;;;;;5066836;28;20237;-75
2021/01/03 12:46:51;;;;;;;12.73;11.52;;;8.70;99.90;;;;;;5061773;28;20249;-75
2021/01/03 12:49:17;;;;;;;13.95;12.65;;;8.90;99.90;;;;;;5067341;28;20221;-74
2021/01/03 12:51:44;;;;;;;12.90;11.80;;;8.70;99.90;;;;;;5060875;28;20222;-76
2021/01/03 12:54:11;;;;;;;11.75;10.75;;;8.30;99.90;;;;;;5078702;28;20275;-76
2021/01/03 12:56:38;;;;;;;11.95;10.85;;;7.90;99.90;;;;;;5069001;28;20245;-74
2021/01/03 12:59:05;;;;;;;11.02;10.02;;;7.70;99.90;;;;;;5055040;28;20518;-74
2021/01/03 13:01:34;;;;;;;10.68;9.77;;;7.50;99.90;;;;;;5060562;28;20225;-74
2021/01/03 13:04:01;;;;;;;11.15;10.25;;;7.20;99.90;;;;;;5075748;28;20605;-74